sensor_id;sensor_type;location;lat;lon;timestamp;P1;durP1;ratioP1;P2;durP2;ratioP2
10315;SDS011;5203;48.976;8.306;2023-03-13T00:01:30;7.67;;;3.93;;
10315;SDS011;5203;48.976;8.306;2023-03-13T00:04:05;9.13;;;4.30;;
10315;SDS011;5203;48.976;8.306;2023-03-13T00:06:32;9.43;;;4.13;;
10315;SDS011;5203;48.976;8.306;2023-03-13T00:09:01;6.20;;;3.60;;
10315;SDS011;5203;48.976;8.306;2023-03-13T00:11:29;8.20;;;3.73;;
10315;SDS011;5203;48.976;8.306;2023-03-13T00:13:56;8.60;;;4.13;;
10315;SDS011;5203;48.976;8.306;2023-03-13T00:16:22;8.03;;;4.17;;
10315;SDS011;5203;48.976;8.306;2023-03-13T00:18:49;9.03;;;3.60;;
10315;SDS011;5203;48.976;8.306;2023-03-13T00:21:17;10.43;;;4.23;;
10315;SDS011;5203;48.976;8.306;2023-03-13T00:23:44;8.80;;;4.00;;
10315;SDS011;5203;48.976;8.306;2023-03-13T00:26:11;6.50;;;3.03;;
10315;SDS011;5203;48.976;8.306;2023-03-13T00:28:39;5.40;;;3.67;;
10315;SDS011;5203;48.976;8.306;2023-03-13T00:31:07;5.57;;;3.60;;
10315;SDS011;5203;48.976;8.306;2023-03-13T00:33:38;7.50;;;3.50;;
10315;SDS011;5203;48.976;8.306;2023-03-13T00:36:07;7.23;;;3.90;;
10315;SDS011;5203;48.976;8.306;2023-03-13T00:38:34;7.03;;;3.20;;
10315;SDS011;5203;48.976;8.306;2023-03-13T00:41:01;7.20;;;3.60;;
10315;SDS011;5203;48.976;8.306;2023-03-13T00:43:29;7.47;;;3.17;;
10315;SDS011;5203;48.976;8.306;2023-03-13T00:45:55;8.37;;;3.23;;
10315;SDS011;5203;48.976;8.306;2023-03-13T00:48:21;6.13;;;3.37;;
10315;SDS011;5203;48.976;8.306;2023-03-13T00:50:47;8.43;;;3.67;;
10315;SDS011;5203;48.976;8.306;2023-03-13T00:53:13;7.77;;;3.70;;
10315;SDS011;5203;48.976;8.306;2023-03-13T00:55:38;6.00;;;3.30;;
10315;SDS011;5203;48.976;8.306;2023-03-13T00:58:14;7.27;;;3.57;;
10315;SDS011;5203;48.976;8.306;2023-03-13T01:00:40;8.23;;;3.47;;
10315;SDS011;5203;48.976;8.306;2023-03-13T01:03:05;6.50;;;2.90;;
10315;SDS011;5203;48.976;8.306;2023-03-13T01:05:31;5.63;;;3.40;;
10315;SDS011;5203;48.976;8.306;2023-03-13T01:07:57;6.37;;;3.23;;
10315;SDS011;5203;48.976;8.306;2023-03-13T01:10:22;7.73;;;3.17;;
10315;SDS011;5203;48.976;8.306;2023-03-13T01:12:48;7.57;;;3.70;;
10315;SDS011;5203;48.976;8.306;2023-03-13T01:15:13;5.87;;;3.70;;
10315;SDS011;5203;48.976;8.306;2023-03-13T01:17:42;4.80;;;2.60;;
10315;SDS011;5203;48.976;8.306;2023-03-13T01:20:08;8.17;;;3.20;;
10315;SDS011;5203;48.976;8.306;2023-03-13T01:22:34;7.57;;;3.03;;
10315;SDS011;5203;48.976;8.306;2023-03-13T01:25:00;6.47;;;2.70;;
10315;SDS011;5203;48.976;8.306;2023-03-13T01:27:25;8.03;;;3.37;;
10315;SDS011;5203;48.976;8.306;2023-03-13T01:29:51;6.10;;;2.87;;
10315;SDS011;5203;48.976;8.306;2023-03-13T01:32:16;3.80;;;2.30;;
10315;SDS011;5203;48.976;8.306;2023-03-13T01:34:42;5.73;;;2.93;;
10315;SDS011;5203;48.976;8.306;2023-03-13T01:37:08;5.60;;;2.67;;
10315;SDS011;5203;48.976;8.306;2023-03-13T01:39:33;6.83;;;3.30;;
10315;SDS011;5203;48.976;8.306;2023-03-13T01:41:59;4.47;;;2.37;;
10315;SDS011;5203;48.976;8.306;2023-03-13T01:44:25;5.57;;;2.63;;
10315;SDS011;5203;48.976;8.306;2023-03-13T01:46:51;4.73;;;2.73;;
10315;SDS011;5203;48.976;8.306;2023-03-13T01:51:52;5.03;;;2.47;;
10315;SDS011;5203;48.976;8.306;2023-03-13T01:54:23;4.10;;;2.53;;
10315;SDS011;5203;48.976;8.306;2023-03-13T01:57:07;4.23;;;2.50;;
10315;SDS011;5203;48.976;8.306;2023-03-13T01:59:53;5.97;;;2.67;;
10315;SDS011;5203;48.976;8.306;2023-03-13T02:02:29;3.93;;;2.80;;
10315;SDS011;5203;48.976;8.306;2023-03-13T02:04:56;3.60;;;2.50;;
10315;SDS011;5203;48.976;8.306;2023-03-13T02:07:30;5.20;;;2.83;;
10315;SDS011;5203;48.976;8.306;2023-03-13T02:10:07;4.67;;;2.60;;
10315;SDS011;5203;48.976;8.306;2023-03-13T02:12:36;4.80;;;2.57;;
10315;SDS011;5203;48.976;8.306;2023-03-13T02:15:05;2.70;;;2.43;;
10315;SDS011;5203;48.976;8.306;2023-03-13T02:17:34;4.73;;;2.33;;
10315;SDS011;5203;48.976;8.306;2023-03-13T02:20:03;4.63;;;2.77;;
10315;SDS011;5203;48.976;8.306;2023-03-13T02:27:59;3.77;;;2.50;;
10315;SDS011;5203;48.976;8.306;2023-03-13T02:30:28;3.73;;;2.80;;
10315;SDS011;5203;48.976;8.306;2023-03-13T02:32:53;5.50;;;2.33;;
10315;SDS011;5203;48.976;8.306;2023-03-13T02:35:20;6.37;;;2.90;;
10315;SDS011;5203;48.976;8.306;2023-03-13T02:37:48;3.70;;;2.50;;
10315;SDS011;5203;48.976;8.306;2023-03-13T02:40:24;5.70;;;2.10;;
10315;SDS011;5203;48.976;8.306;2023-03-13T02:43:04;6.27;;;2.53;;
10315;SDS011;5203;48.976;8.306;2023-03-13T02:45:34;3.87;;;2.20;;
10315;SDS011;5203;48.976;8.306;2023-03-13T02:47:59;4.07;;;2.30;;
10315;SDS011;5203;48.976;8.306;2023-03-13T02:50:25;4.40;;;2.50;;
10315;SDS011;5203;48.976;8.306;2023-03-13T02:53:00;3.80;;;2.30;;
10315;SDS011;5203;48.976;8.306;2023-03-13T02:55:30;4.07;;;2.27;;
10315;SDS011;5203;48.976;8.306;2023-03-13T02:58:00;2.23;;;1.90;;
10315;SDS011;5203;48.976;8.306;2023-03-13T03:00:25;3.40;;;2.20;;
10315;SDS011;5203;48.976;8.306;2023-03-13T03:02:52;3.67;;;2.03;;
10315;SDS011;5203;48.976;8.306;2023-03-13T03:05:18;2.57;;;1.97;;
10315;SDS011;5203;48.976;8.306;2023-03-13T03:07:44;3.67;;;2.37;;
10315;SDS011;5203;48.976;8.306;2023-03-13T03:10:10;4.07;;;2.20;;
10315;SDS011;5203;48.976;8.306;2023-03-13T03:12:35;4.57;;;1.90;;
10315;SDS011;5203;48.976;8.306;2023-03-13T03:15:01;3.93;;;2.10;;
10315;SDS011;5203;48.976;8.306;2023-03-13T03:17:28;4.33;;;2.30;;
10315;SDS011;5203;48.976;8.306;2023-03-13T03:19:54;3.43;;;2.00;;
10315;SDS011;5203;48.976;8.306;2023-03-13T03:22:21;4.00;;;2.17;;
10315;SDS011;5203;48.976;8.306;2023-03-13T03:24:47;2.40;;;2.00;;
10315;SDS011;5203;48.976;8.306;2023-03-13T03:27:13;5.57;;;2.57;;
10315;SDS011;5203;48.976;8.306;2023-03-13T03:29:38;3.20;;;2.20;;
10315;SDS011;5203;48.976;8.306;2023-03-13T03:32:04;3.20;;;1.87;;
10315;SDS011;5203;48.976;8.306;2023-03-13T03:34:30;2.40;;;2.10;;
10315;SDS011;5203;48.976;8.306;2023-03-13T03:36:56;3.70;;;1.90;;
10315;SDS011;5203;48.976;8.306;2023-03-13T03:39:22;3.77;;;2.30;;
10315;SDS011;5203;48.976;8.306;2023-03-13T03:41:47;5.20;;;1.93;;
10315;SDS011;5203;48.976;8.306;2023-03-13T03:44:13;2.47;;;1.77;;
10315;SDS011;5203;48.976;8.306;2023-03-13T03:46:38;2.60;;;1.83;;
10315;SDS011;5203;48.976;8.306;2023-03-13T03:49:04;2.30;;;2.00;;
10315;SDS011;5203;48.976;8.306;2023-03-13T03:51:30;1.80;;;1.70;;
10315;SDS011;5203;48.976;8.306;2023-03-13T03:53:55;2.37;;;2.17;;
10315;SDS011;5203;48.976;8.306;2023-03-13T03:56:21;2.73;;;1.80;;
10315;SDS011;5203;48.976;8.306;2023-03-13T03:58:47;3.53;;;2.00;;
10315;SDS011;5203;48.976;8.306;2023-03-13T04:01:12;5.57;;;2.10;;
10315;SDS011;5203;48.976;8.306;2023-03-13T04:03:38;2.83;;;2.00;;
10315;SDS011;5203;48.976;8.306;2023-03-13T04:06:04;4.20;;;2.10;;
10315;SDS011;5203;48.976;8.306;2023-03-13T04:08:31;3.90;;;1.93;;
10315;SDS011;5203;48.976;8.306;2023-03-13T04:10:56;5.30;;;2.03;;
10315;SDS011;5203;48.976;8.306;2023-03-13T04:13:24;2.83;;;1.80;;
10315;SDS011;5203;48.976;8.306;2023-03-13T04:15:49;4.67;;;2.10;;
10315;SDS011;5203;48.976;8.306;2023-03-13T04:18:15;4.00;;;1.87;;
10315;SDS011;5203;48.976;8.306;2023-03-13T04:20:41;3.00;;;2.10;;
10315;SDS011;5203;48.976;8.306;2023-03-13T04:23:07;2.93;;;2.00;;
10315;SDS011;5203;48.976;8.306;2023-03-13T04:25:32;2.63;;;2.13;;
10315;SDS011;5203;48.976;8.306;2023-03-13T04:28:00;2.80;;;1.80;;
10315;SDS011;5203;48.976;8.306;2023-03-13T04:30:25;3.60;;;2.10;;
10315;SDS011;5203;48.976;8.306;2023-03-13T04:32:51;3.97;;;2.20;;
10315;SDS011;5203;48.976;8.306;2023-03-13T04:35:17;2.87;;;2.27;;
10315;SDS011;5203;48.976;8.306;2023-03-13T04:37:43;2.10;;;1.90;;
10315;SDS011;5203;48.976;8.306;2023-03-13T04:40:09;2.37;;;2.17;;
10315;SDS011;5203;48.976;8.306;2023-03-13T04:42:36;2.17;;;1.90;;
10315;SDS011;5203;48.976;8.306;2023-03-13T04:45:02;4.13;;;2.30;;
10315;SDS011;5203;48.976;8.306;2023-03-13T04:47:29;4.20;;;2.10;;
10315;SDS011;5203;48.976;8.306;2023-03-13T04:49:54;2.20;;;2.07;;
10315;SDS011;5203;48.976;8.306;2023-03-13T04:52:20;2.37;;;2.00;;
10315;SDS011;5203;48.976;8.306;2023-03-13T04:54:46;2.37;;;1.77;;
10315;SDS011;5203;48.976;8.306;2023-03-13T04:57:12;2.67;;;1.77;;
10315;SDS011;5203;48.976;8.306;2023-03-13T04:59:37;2.27;;;1.93;;
10315;SDS011;5203;48.976;8.306;2023-03-13T05:02:03;2.00;;;1.83;;
10315;SDS011;5203;48.976;8.306;2023-03-13T05:04:29;2.87;;;1.97;;
10315;SDS011;5203;48.976;8.306;2023-03-13T05:06:54;2.30;;;1.80;;
10315;SDS011;5203;48.976;8.306;2023-03-13T05:09:20;2.63;;;1.80;;
10315;SDS011;5203;48.976;8.306;2023-03-13T05:11:45;4.07;;;2.10;;
10315;SDS011;5203;48.976;8.306;2023-03-13T05:14:11;1.70;;;1.60;;
10315;SDS011;5203;48.976;8.306;2023-03-13T05:16:37;1.67;;;1.57;;
10315;SDS011;5203;48.976;8.306;2023-03-13T05:19:03;1.87;;;1.70;;
10315;SDS011;5203;48.976;8.306;2023-03-13T05:21:28;1.83;;;1.73;;
10315;SDS011;5203;48.976;8.306;2023-03-13T05:23:54;2.27;;;1.80;;
10315;SDS011;5203;48.976;8.306;2023-03-13T05:26:20;1.50;;;1.40;;
10315;SDS011;5203;48.976;8.306;2023-03-13T05:28:45;2.00;;;1.50;;
10315;SDS011;5203;48.976;8.306;2023-03-13T05:31:11;1.60;;;1.50;;
10315;SDS011;5203;48.976;8.306;2023-03-13T05:33:37;2.07;;;1.53;;
10315;SDS011;5203;48.976;8.306;2023-03-13T05:36:02;3.43;;;1.70;;
10315;SDS011;5203;48.976;8.306;2023-03-13T05:38:28;2.27;;;1.60;;
10315;SDS011;5203;48.976;8.306;2023-03-13T05:40:54;1.70;;;1.60;;
10315;SDS011;5203;48.976;8.306;2023-03-13T05:43:21;1.70;;;1.60;;
10315;SDS011;5203;48.976;8.306;2023-03-13T05:45:46;1.83;;;1.60;;
10315;SDS011;5203;48.976;8.306;2023-03-13T05:48:12;1.63;;;1.53;;
10315;SDS011;5203;48.976;8.306;2023-03-13T05:50:37;2.27;;;1.63;;
10315;SDS011;5203;48.976;8.306;2023-03-13T05:53:03;2.40;;;1.50;;
10315;SDS011;5203;48.976;8.306;2023-03-13T05:55:29;2.20;;;1.60;;
10315;SDS011;5203;48.976;8.306;2023-03-13T05:57:55;1.53;;;1.43;;
10315;SDS011;5203;48.976;8.306;2023-03-13T06:00:20;1.53;;;1.47;;
10315;SDS011;5203;48.976;8.306;2023-03-13T06:02:46;1.70;;;1.60;;
10315;SDS011;5203;48.976;8.306;2023-03-13T06:05:12;1.70;;;1.60;;
10315;SDS011;5203;48.976;8.306;2023-03-13T06:07:37;2.20;;;1.50;;
10315;SDS011;5203;48.976;8.306;2023-03-13T06:10:03;1.80;;;1.60;;
10315;SDS011;5203;48.976;8.306;2023-03-13T06:12:29;1.63;;;1.53;;
10315;SDS011;5203;48.976;8.306;2023-03-13T06:14:55;1.50;;;1.40;;
10315;SDS011;5203;48.976;8.306;2023-03-13T06:17:21;2.03;;;1.37;;
10315;SDS011;5203;48.976;8.306;2023-03-13T06:19:46;1.63;;;1.50;;
10315;SDS011;5203;48.976;8.306;2023-03-13T06:22:12;1.63;;;1.53;;
10315;SDS011;5203;48.976;8.306;2023-03-13T06:24:40;3.07;;;1.70;;
10315;SDS011;5203;48.976;8.306;2023-03-13T06:27:08;1.53;;;1.43;;
10315;SDS011;5203;48.976;8.306;2023-03-13T06:29:34;1.60;;;1.50;;
10315;SDS011;5203;48.976;8.306;2023-03-13T06:32:00;2.10;;;1.33;;
10315;SDS011;5203;48.976;8.306;2023-03-13T06:34:26;1.77;;;1.47;;
10315;SDS011;5203;48.976;8.306;2023-03-13T06:36:52;2.97;;;1.70;;
10315;SDS011;5203;48.976;8.306;2023-03-13T06:39:18;3.40;;;1.60;;
10315;SDS011;5203;48.976;8.306;2023-03-13T06:41:44;2.20;;;1.60;;
10315;SDS011;5203;48.976;8.306;2023-03-13T06:44:09;1.60;;;1.50;;
10315;SDS011;5203;48.976;8.306;2023-03-13T06:46:35;1.50;;;1.40;;
10315;SDS011;5203;48.976;8.306;2023-03-13T06:49:01;1.73;;;1.63;;
10315;SDS011;5203;48.976;8.306;2023-03-13T06:51:29;1.60;;;1.50;;
10315;SDS011;5203;48.976;8.306;2023-03-13T06:53:55;1.60;;;1.50;;
10315;SDS011;5203;48.976;8.306;2023-03-13T06:56:21;1.70;;;1.60;;
10315;SDS011;5203;48.976;8.306;2023-03-13T07:01:15;1.73;;;1.63;;
10315;SDS011;5203;48.976;8.306;2023-03-13T07:03:41;1.87;;;1.50;;
10315;SDS011;5203;48.976;8.306;2023-03-13T07:06:08;1.90;;;1.53;;
10315;SDS011;5203;48.976;8.306;2023-03-13T07:08:35;1.70;;;1.60;;
10315;SDS011;5203;48.976;8.306;2023-03-13T07:11:02;1.70;;;1.60;;
10315;SDS011;5203;48.976;8.306;2023-03-13T07:13:29;1.80;;;1.70;;
10315;SDS011;5203;48.976;8.306;2023-03-13T07:15:58;2.73;;;1.70;;
10315;SDS011;5203;48.976;8.306;2023-03-13T07:18:24;1.67;;;1.57;;
10315;SDS011;5203;48.976;8.306;2023-03-13T07:20:51;1.70;;;1.60;;
10315;SDS011;5203;48.976;8.306;2023-03-13T07:23:18;2.17;;;1.83;;
10315;SDS011;5203;48.976;8.306;2023-03-13T07:25:55;1.70;;;1.60;;
10315;SDS011;5203;48.976;8.306;2023-03-13T07:28:22;1.70;;;1.60;;
10315;SDS011;5203;48.976;8.306;2023-03-13T07:30:49;2.17;;;1.97;;
10315;SDS011;5203;48.976;8.306;2023-03-13T07:33:14;1.50;;;1.40;;
10315;SDS011;5203;48.976;8.306;2023-03-13T07:35:45;2.50;;;1.60;;
10315;SDS011;5203;48.976;8.306;2023-03-13T07:38:12;1.97;;;1.77;;
10315;SDS011;5203;48.976;8.306;2023-03-13T07:40:38;1.70;;;1.50;;
10315;SDS011;5203;48.976;8.306;2023-03-13T07:43:03;1.70;;;1.60;;
10315;SDS011;5203;48.976;8.306;2023-03-13T07:45:29;1.70;;;1.60;;
10315;SDS011;5203;48.976;8.306;2023-03-13T07:47:54;1.70;;;1.60;;
10315;SDS011;5203;48.976;8.306;2023-03-13T07:50:20;2.07;;;1.80;;
10315;SDS011;5203;48.976;8.306;2023-03-13T07:52:46;2.03;;;1.90;;
10315;SDS011;5203;48.976;8.306;2023-03-13T07:55:12;1.60;;;1.50;;
10315;SDS011;5203;48.976;8.306;2023-03-13T07:57:37;1.80;;;1.50;;
10315;SDS011;5203;48.976;8.306;2023-03-13T08:00:03;1.80;;;1.70;;
10315;SDS011;5203;48.976;8.306;2023-03-13T08:02:33;1.60;;;1.50;;
10315;SDS011;5203;48.976;8.306;2023-03-13T08:04:59;2.07;;;1.60;;
10315;SDS011;5203;48.976;8.306;2023-03-13T08:07:25;2.20;;;1.77;;
10315;SDS011;5203;48.976;8.306;2023-03-13T08:09:50;1.70;;;1.60;;
10315;SDS011;5203;48.976;8.306;2023-03-13T08:12:16;1.70;;;1.60;;
10315;SDS011;5203;48.976;8.306;2023-03-13T08:14:41;1.70;;;1.60;;
10315;SDS011;5203;48.976;8.306;2023-03-13T08:17:07;1.67;;;1.57;;
10315;SDS011;5203;48.976;8.306;2023-03-13T08:19:32;1.87;;;1.60;;
10315;SDS011;5203;48.976;8.306;2023-03-13T08:21:58;1.63;;;1.50;;
10315;SDS011;5203;48.976;8.306;2023-03-13T08:24:24;2.10;;;1.50;;
10315;SDS011;5203;48.976;8.306;2023-03-13T08:26:49;1.70;;;1.60;;
10315;SDS011;5203;48.976;8.306;2023-03-13T08:29:15;1.57;;;1.47;;
10315;SDS011;5203;48.976;8.306;2023-03-13T08:31:44;1.50;;;1.40;;
10315;SDS011;5203;48.976;8.306;2023-03-13T08:34:15;1.87;;;1.77;;
10315;SDS011;5203;48.976;8.306;2023-03-13T08:36:42;1.80;;;1.70;;
10315;SDS011;5203;48.976;8.306;2023-03-13T08:39:12;1.93;;;1.70;;
10315;SDS011;5203;48.976;8.306;2023-03-13T08:41:39;1.70;;;1.60;;
10315;SDS011;5203;48.976;8.306;2023-03-13T08:44:05;1.90;;;1.80;;
10315;SDS011;5203;48.976;8.306;2023-03-13T08:46:34;2.33;;;1.80;;
10315;SDS011;5203;48.976;8.306;2023-03-13T08:49:00;1.70;;;1.60;;
10315;SDS011;5203;48.976;8.306;2023-03-13T08:51:27;1.70;;;1.60;;
10315;SDS011;5203;48.976;8.306;2023-03-13T08:53:54;1.70;;;1.60;;
10315;SDS011;5203;48.976;8.306;2023-03-13T08:56:21;1.83;;;1.73;;
10315;SDS011;5203;48.976;8.306;2023-03-13T08:58:52;2.07;;;1.70;;
10315;SDS011;5203;48.976;8.306;2023-03-13T09:01:20;2.17;;;2.03;;
10315;SDS011;5203;48.976;8.306;2023-03-13T09:03:47;1.80;;;1.70;;
10315;SDS011;5203;48.976;8.306;2023-03-13T09:06:13;1.80;;;1.70;;
10315;SDS011;5203;48.976;8.306;2023-03-13T09:08:38;2.40;;;1.63;;
10315;SDS011;5203;48.976;8.306;2023-03-13T09:11:12;2.10;;;1.90;;
10315;SDS011;5203;48.976;8.306;2023-03-13T09:13:43;3.37;;;2.00;;
10315;SDS011;5203;48.976;8.306;2023-03-13T09:16:14;1.90;;;1.80;;
10315;SDS011;5203;48.976;8.306;2023-03-13T09:18:44;1.90;;;1.80;;
10315;SDS011;5203;48.976;8.306;2023-03-13T09:21:12;2.10;;;2.00;;
10315;SDS011;5203;48.976;8.306;2023-03-13T09:23:43;1.90;;;1.80;;
10315;SDS011;5203;48.976;8.306;2023-03-13T09:26:09;3.00;;;2.10;;
10315;SDS011;5203;48.976;8.306;2023-03-13T09:28:35;2.33;;;2.00;;
10315;SDS011;5203;48.976;8.306;2023-03-13T09:31:13;2.10;;;1.90;;
10315;SDS011;5203;48.976;8.306;2023-03-13T09:33:41;2.53;;;2.03;;
10315;SDS011;5203;48.976;8.306;2023-03-13T09:36:07;1.90;;;1.80;;
10315;SDS011;5203;48.976;8.306;2023-03-13T09:38:34;2.90;;;2.20;;
10315;SDS011;5203;48.976;8.306;2023-03-13T09:41:20;2.60;;;1.97;;
10315;SDS011;5203;48.976;8.306;2023-03-13T09:43:55;3.00;;;2.23;;
10315;SDS011;5203;48.976;8.306;2023-03-13T09:46:40;2.50;;;2.20;;
10315;SDS011;5203;48.976;8.306;2023-03-13T09:49:30;1.80;;;1.70;;
10315;SDS011;5203;48.976;8.306;2023-03-13T09:55:10;2.30;;;2.00;;
10315;SDS011;5203;48.976;8.306;2023-03-13T09:57:55;4.57;;;2.20;;
10315;SDS011;5203;48.976;8.306;2023-03-13T10:00:26;2.53;;;2.10;;
10315;SDS011;5203;48.976;8.306;2023-03-13T10:03:00;2.33;;;2.13;;
10315;SDS011;5203;48.976;8.306;2023-03-13T10:05:32;2.40;;;2.20;;
10315;SDS011;5203;48.976;8.306;2023-03-13T10:08:10;5.80;;;2.47;;
10315;SDS011;5203;48.976;8.306;2023-03-13T10:13:22;2.30;;;2.10;;
10315;SDS011;5203;48.976;8.306;2023-03-13T10:16:00;2.50;;;2.30;;
10315;SDS011;5203;48.976;8.306;2023-03-13T10:18:33;2.30;;;2.10;;
10315;SDS011;5203;48.976;8.306;2023-03-13T10:21:00;3.23;;;2.27;;
10315;SDS011;5203;48.976;8.306;2023-03-13T10:23:39;2.43;;;2.23;;
10315;SDS011;5203;48.976;8.306;2023-03-13T10:26:54;2.40;;;2.20;;
10315;SDS011;5203;48.976;8.306;2023-03-13T10:29:23;2.57;;;2.30;;
10315;SDS011;5203;48.976;8.306;2023-03-13T10:31:59;3.37;;;2.73;;
10315;SDS011;5203;48.976;8.306;2023-03-13T10:34:43;2.70;;;2.30;;
10315;SDS011;5203;48.976;8.306;2023-03-13T10:37:25;2.10;;;2.00;;
10315;SDS011;5203;48.976;8.306;2023-03-13T10:39:51;3.53;;;2.37;;
10315;SDS011;5203;48.976;8.306;2023-03-13T10:44:58;2.87;;;2.30;;
10315;SDS011;5203;48.976;8.306;2023-03-13T10:47:26;3.83;;;2.20;;
10315;SDS011;5203;48.976;8.306;2023-03-13T10:49:56;2.40;;;2.20;;
10315;SDS011;5203;48.976;8.306;2023-03-13T10:52:30;2.93;;;2.47;;
10315;SDS011;5203;48.976;8.306;2023-03-13T10:55:09;2.90;;;2.57;;
10315;SDS011;5203;48.976;8.306;2023-03-13T10:57:50;2.50;;;2.30;;
10315;SDS011;5203;48.976;8.306;2023-03-13T11:00:29;2.60;;;2.40;;
10315;SDS011;5203;48.976;8.306;2023-03-13T11:03:00;2.27;;;2.17;;
10315;SDS011;5203;48.976;8.306;2023-03-13T11:05:32;2.33;;;2.20;;
10315;SDS011;5203;48.976;8.306;2023-03-13T11:08:11;2.30;;;2.07;;
10315;SDS011;5203;48.976;8.306;2023-03-13T11:10:50;3.40;;;2.33;;
10315;SDS011;5203;48.976;8.306;2023-03-13T11:16:00;2.57;;;2.37;;
10315;SDS011;5203;48.976;8.306;2023-03-13T11:24:09;2.75;;;2.50;;
10315;SDS011;5203;48.976;8.306;2023-03-13T11:26:53;3.08;;;2.28;;
10315;SDS011;5203;48.976;8.306;2023-03-13T11:29:31;2.88;;;2.67;;
10315;SDS011;5203;48.976;8.306;2023-03-13T11:32:13;3.58;;;2.65;;
10315;SDS011;5203;48.976;8.306;2023-03-13T11:34:47;4.28;;;2.55;;
10315;SDS011;5203;48.976;8.306;2023-03-13T11:37:18;2.63;;;2.42;;
10315;SDS011;5203;48.976;8.306;2023-03-13T11:48:08;2.50;;;2.30;;
10315;SDS011;5203;48.976;8.306;2023-03-13T11:50:54;2.60;;;2.50;;
10315;SDS011;5203;48.976;8.306;2023-03-13T11:59:07;3.40;;;2.15;;
10315;SDS011;5203;48.976;8.306;2023-03-13T12:01:48;2.40;;;2.20;;
10315;SDS011;5203;48.976;8.306;2023-03-13T12:04:24;3.15;;;2.38;;
10315;SDS011;5203;48.976;8.306;2023-03-13T12:06:53;2.70;;;2.50;;
10315;SDS011;5203;48.976;8.306;2023-03-13T12:09:29;2.60;;;2.40;;
10315;SDS011;5203;48.976;8.306;2023-03-13T12:12:08;2.47;;;2.28;;
10315;SDS011;5203;48.976;8.306;2023-03-13T12:14:43;2.78;;;2.42;;
10315;SDS011;5203;48.976;8.306;2023-03-13T12:17:11;4.07;;;2.67;;
10315;SDS011;5203;48.976;8.306;2023-03-13T12:19:57;3.20;;;2.63;;
10315;SDS011;5203;48.976;8.306;2023-03-13T12:22:41;3.83;;;2.45;;
10315;SDS011;5203;48.976;8.306;2023-03-13T12:27:49;2.45;;;2.25;;
10315;SDS011;5203;48.976;8.306;2023-03-13T12:30:20;5.60;;;2.88;;
10315;SDS011;5203;48.976;8.306;2023-03-13T12:35:51;2.70;;;2.50;;
10315;SDS011;5203;48.976;8.306;2023-03-13T12:38:39;2.60;;;2.40;;
10315;SDS011;5203;48.976;8.306;2023-03-13T12:44:11;6.93;;;2.72;;
10315;SDS011;5203;48.976;8.306;2023-03-13T12:49:40;3.25;;;2.47;;
10315;SDS011;5203;48.976;8.306;2023-03-13T12:55:21;3.38;;;2.40;;
10315;SDS011;5203;48.976;8.306;2023-03-13T12:58:40;2.83;;;2.63;;
10315;SDS011;5203;48.976;8.306;2023-03-13T13:01:04;12.27;;;3.00;;
10315;SDS011;5203;48.976;8.306;2023-03-13T13:03:38;2.83;;;2.58;;
10315;SDS011;5203;48.976;8.306;2023-03-13T13:06:15;3.85;;;2.70;;
10315;SDS011;5203;48.976;8.306;2023-03-13T13:16:44;3.85;;;3.00;;
10315;SDS011;5203;48.976;8.306;2023-03-13T13:22:42;2.47;;;2.38;;
10315;SDS011;5203;48.976;8.306;2023-03-13T13:24:55;3.13;;;2.58;;
10315;SDS011;5203;48.976;8.306;2023-03-13T13:29:56;9.38;;;2.90;;
10315;SDS011;5203;48.976;8.306;2023-03-13T13:32:38;2.80;;;2.60;;
10315;SDS011;5203;48.976;8.306;2023-03-13T13:37:40;3.17;;;2.22;;
10315;SDS011;5203;48.976;8.306;2023-03-13T13:40:27;2.97;;;2.60;;
10315;SDS011;5203;48.976;8.306;2023-03-13T13:42:55;6.25;;;2.70;;
10315;SDS011;5203;48.976;8.306;2023-03-13T13:45:26;2.53;;;2.33;;
10315;SDS011;5203;48.976;8.306;2023-03-13T13:48:12;6.32;;;2.90;;
10315;SDS011;5203;48.976;8.306;2023-03-13T13:53:32;2.30;;;2.20;;
10315;SDS011;5203;48.976;8.306;2023-03-13T13:59:35;2.53;;;2.38;;
10315;SDS011;5203;48.976;8.306;2023-03-13T14:01:49;2.45;;;2.35;;
10315;SDS011;5203;48.976;8.306;2023-03-13T14:10:13;3.03;;;2.30;;
10315;SDS011;5203;48.976;8.306;2023-03-13T14:12:55;2.35;;;1.92;;
10315;SDS011;5203;48.976;8.306;2023-03-13T14:15:26;2.40;;;2.20;;
10315;SDS011;5203;48.976;8.306;2023-03-13T14:17:54;2.20;;;2.00;;
10315;SDS011;5203;48.976;8.306;2023-03-13T14:23:01;2.30;;;2.20;;
10315;SDS011;5203;48.976;8.306;2023-03-13T14:25:42;2.88;;;2.50;;
10315;SDS011;5203;48.976;8.306;2023-03-13T14:30:46;4.45;;;2.38;;
10315;SDS011;5203;48.976;8.306;2023-03-13T14:33:14;8.73;;;2.60;;
10315;SDS011;5203;48.976;8.306;2023-03-13T14:35:40;3.38;;;2.67;;
10315;SDS011;5203;48.976;8.306;2023-03-13T14:38:06;3.58;;;2.60;;
10315;SDS011;5203;48.976;8.306;2023-03-13T14:40:43;19.13;;;3.90;;
10315;SDS011;5203;48.976;8.306;2023-03-13T14:43:20;2.40;;;2.20;;
10315;SDS011;5203;48.976;8.306;2023-03-13T14:46:20;2.92;;;2.10;;
10315;SDS011;5203;48.976;8.306;2023-03-13T14:48:55;2.53;;;2.35;;
10315;SDS011;5203;48.976;8.306;2023-03-13T14:51:23;3.08;;;2.50;;
10315;SDS011;5203;48.976;8.306;2023-03-13T14:53:54;4.72;;;2.60;;
10315;SDS011;5203;48.976;8.306;2023-03-13T14:56:29;5.15;;;2.70;;
10315;SDS011;5203;48.976;8.306;2023-03-13T14:59:11;2.05;;;1.95;;
10315;SDS011;5203;48.976;8.306;2023-03-13T15:01:41;2.10;;;2.00;;
10315;SDS011;5203;48.976;8.306;2023-03-13T15:04:07;4.03;;;2.55;;
10315;SDS011;5203;48.976;8.306;2023-03-13T15:06:33;2.33;;;2.05;;
10315;SDS011;5203;48.976;8.306;2023-03-13T15:09:15;2.63;;;2.42;;
10315;SDS011;5203;48.976;8.306;2023-03-13T15:11:58;3.15;;;2.20;;
10315;SDS011;5203;48.976;8.306;2023-03-13T15:14:35;2.20;;;2.08;;
10315;SDS011;5203;48.976;8.306;2023-03-13T15:17:12;2.63;;;2.40;;
10315;SDS011;5203;48.976;8.306;2023-03-13T15:19:46;4.03;;;2.40;;
10315;SDS011;5203;48.976;8.306;2023-03-13T15:22:16;3.55;;;2.63;;
10315;SDS011;5203;48.976;8.306;2023-03-13T15:24:45;2.10;;;2.00;;
10315;SDS011;5203;48.976;8.306;2023-03-13T15:27:17;3.63;;;2.50;;
10315;SDS011;5203;48.976;8.306;2023-03-13T15:29:44;3.67;;;2.50;;
10315;SDS011;5203;48.976;8.306;2023-03-13T15:32:13;2.60;;;2.40;;
10315;SDS011;5203;48.976;8.306;2023-03-13T15:34:49;24.75;;;4.93;;
10315;SDS011;5203;48.976;8.306;2023-03-13T15:37:15;2.70;;;2.50;;
10315;SDS011;5203;48.976;8.306;2023-03-13T15:39:41;3.10;;;2.65;;
10315;SDS011;5203;48.976;8.306;2023-03-13T15:42:07;4.50;;;2.50;;
10315;SDS011;5203;48.976;8.306;2023-03-13T15:44:33;2.88;;;2.33;;
10315;SDS011;5203;48.976;8.306;2023-03-13T15:46:59;2.67;;;2.47;;
10315;SDS011;5203;48.976;8.306;2023-03-13T15:49:24;4.57;;;2.35;;
10315;SDS011;5203;48.976;8.306;2023-03-13T15:51:50;4.15;;;2.47;;
10315;SDS011;5203;48.976;8.306;2023-03-13T15:54:17;4.03;;;2.70;;
10315;SDS011;5203;48.976;8.306;2023-03-13T15:56:43;2.45;;;2.33;;
10315;SDS011;5203;48.976;8.306;2023-03-13T15:59:12;3.42;;;2.60;;
10315;SDS011;5203;48.976;8.306;2023-03-13T16:01:39;3.80;;;2.50;;
10315;SDS011;5203;48.976;8.306;2023-03-13T16:04:06;2.10;;;2.00;;
10315;SDS011;5203;48.976;8.306;2023-03-13T16:06:32;2.88;;;2.38;;
10315;SDS011;5203;48.976;8.306;2023-03-13T16:08:58;2.50;;;2.30;;
10315;SDS011;5203;48.976;8.306;2023-03-13T16:11:25;3.67;;;2.33;;
10315;SDS011;5203;48.976;8.306;2023-03-13T16:13:51;2.22;;;2.13;;
10315;SDS011;5203;48.976;8.306;2023-03-13T16:18:46;7.93;;;2.83;;
10315;SDS011;5203;48.976;8.306;2023-03-13T16:21:17;6.53;;;2.40;;
10315;SDS011;5203;48.976;8.306;2023-03-13T16:23:45;2.40;;;2.30;;
10315;SDS011;5203;48.976;8.306;2023-03-13T16:26:15;2.78;;;2.22;;
10315;SDS011;5203;48.976;8.306;2023-03-13T16:28:46;4.80;;;4.40;;
10315;SDS011;5203;48.976;8.306;2023-03-13T16:31:16;5.88;;;5.38;;
10315;SDS011;5203;48.976;8.306;2023-03-13T16:33:46;4.05;;;3.75;;
10315;SDS011;5203;48.976;8.306;2023-03-13T16:36:14;4.35;;;2.92;;
10315;SDS011;5203;48.976;8.306;2023-03-13T16:38:45;2.80;;;2.60;;
10315;SDS011;5203;48.976;8.306;2023-03-13T16:41:15;5.60;;;2.70;;
10315;SDS011;5203;48.976;8.306;2023-03-13T16:43:42;3.95;;;2.67;;
10315;SDS011;5203;48.976;8.306;2023-03-13T16:46:11;11.43;;;10.35;;